Time;durP1;ratioP1;P1;durP2;ratioP2;P2;SDS_P1;SDS_P2;PMS_P1;PMS_P2;Temp;Humidity;BMP_temperature;BMP_pressure;BME280_temperature;BME280_humidity;BME280_pressure;Samples;Min_cycle;Max_cycle;Signal;HPM_P1;HPM_P2
2022/06/17 00:01:36;;;;;;;3.47;1.20;;;16.60;76.90;;;;;;5054127;28;20209;-78
2022/06/17 00:04:02;;;;;;;5.30;1.40;;;16.60;75.90;;;;;;5059225;28;20451;-77
2022/06/17 00:06:38;;;;;;;5.87;1.57;;;16.60;75.70;;;;;;5047881;28;20199;-77
2022/06/17 00:09:06;;;;;;;7.03;1.07;;;16.60;75.40;;;;;;5048210;28;20182;-78
2022/06/17 00:11:35;;;;;;;1.60;0.80;;;16.60;75.60;;;;;;5047909;28;20440;-79
2022/06/17 00:14:00;;;;;;;5.50;1.40;;;16.60;76.50;;;;;;5047251;28;20439;-78
2022/06/17 00:16:27;;;;;;;9.13;1.37;;;16.50;77.50;;;;;;5048090;28;21123;-76
2022/06/17 00:18:54;;;;;;;2.47;1.10;;;16.40;77.70;;;;;;5047619;28;20184;-78
2022/06/17 00:21:38;;;;;;;2.67;1.50;;;16.30;78.50;;;;;;5047845;28;20471;-77
2022/06/17 00:24:18;;;;;;;2.23;1.10;;;16.20;78.80;;;;;;5047465;28;20432;-76
2022/06/17 00:26:44;;;;;;;2.73;1.20;;;16.00;78.80;;;;;;5047751;28;20400;-76
2022/06/17 00:29:12;;;;;;;2.80;1.00;;;15.90;80.30;;;;;;5047846;28;20416;-78
2022/06/17 00:31:38;;;;;;;1.90;1.20;;;15.80;80.60;;;;;;5047879;28;20427;-76
2022/06/17 00:34:04;;;;;;;3.23;1.37;;;15.80;81.40;;;;;;5047954;28;21284;-75
2022/06/17 00:36:30;;;;;;;3.73;0.87;;;15.70;81.60;;;;;;5057739;28;20419;-77
2022/06/17 00:38:55;;;;;;;3.50;1.57;;;15.60;82.40;;;;;;5067568;28;20192;-78
2022/06/17 00:41:32;;;;;;;3.13;1.10;;;15.50;82.60;;;;;;5068144;28;20215;-77
2022/06/17 00:44:00;;;;;;;2.77;1.20;;;15.40;82.40;;;;;;5066369;28;20200;-77
2022/06/17 00:46:36;;;;;;;3.30;1.50;;;15.40;81.90;;;;;;5067968;28;20419;-77
2022/06/17 00:49:26;;;;;;;4.30;1.87;;;15.40;82.30;;;;;;5067515;28;20441;-78
2022/06/17 00:52:07;;;;;;;2.70;1.40;;;15.40;83.00;;;;;;5062416;28;20459;-77
2022/06/17 00:54:47;;;;;;;7.30;2.40;;;15.40;83.30;;;;;;5047644;28;20435;-78
2022/06/17 00:57:32;;;;;;;2.80;1.40;;;15.30;83.60;;;;;;5047456;28;20950;-76
2022/06/17 01:00:13;;;;;;;7.20;1.30;;;15.20;84.20;;;;;;5046581;28;20986;-76
2022/06/17 01:02:51;;;;;;;2.20;1.27;;;15.10;84.90;;;;;;5046923;28;20554;-77
2022/06/17 01:05:21;;;;;;;3.00;1.50;;;15.00;85.20;;;;;;5047567;28;20420;-77
2022/06/17 01:08:02;;;;;;;2.60;1.20;;;14.90;85.20;;;;;;5047083;28;20910;-76
2022/06/17 01:10:29;;;;;;;7.90;1.20;;;14.90;85.00;;;;;;5046461;28;20424;-77
2022/06/17 01:13:07;;;;;;;4.27;1.43;;;14.80;84.70;;;;;;5061996;28;20431;-77
2022/06/17 01:15:35;;;;;;;2.30;0.90;;;14.80;85.30;;;;;;5047754;28;20420;-76
2022/06/17 01:18:01;;;;;;;2.60;1.23;;;14.80;85.20;;;;;;5047256;28;20413;-77
2022/06/17 01:20:30;;;;;;;2.40;1.20;;;14.90;85.40;;;;;;5062826;28;20538;-77
2022/06/17 01:22:59;;;;;;;2.20;1.10;;;14.80;85.40;;;;;;5046973;28;20777;-77
2022/06/17 01:25:27;;;;;;;4.20;1.70;;;14.80;85.40;;;;;;5047780;28;20404;-77
2022/06/17 01:28:00;;;;;;;1.90;0.87;;;14.80;85.70;;;;;;5066229;28;20524;-77
2022/06/17 01:30:31;;;;;;;7.03;1.40;;;14.70;86.00;;;;;;5051312;28;20435;-79
2022/06/17 01:33:15;;;;;;;2.40;1.10;;;14.70;85.60;;;;;;5050767;28;20409;-77
2022/06/17 01:35:53;;;;;;;2.47;1.13;;;14.60;86.20;;;;;;5050922;28;20455;-77
2022/06/17 01:38:20;;;;;;;3.40;1.40;;;14.50;86.60;;;;;;5048898;28;20496;-76
2022/06/17 01:40:46;;;;;;;6.93;1.40;;;14.50;86.10;;;;;;5051233;28;20463;-77
2022/06/17 01:43:15;;;;;;;3.20;1.50;;;14.50;86.90;;;;;;5048999;28;20869;-78
2022/06/17 01:45:46;;;;;;;6.13;1.70;;;14.40;86.80;;;;;;5050988;28;20178;-77
2022/06/17 01:48:14;;;;;;;2.27;1.30;;;14.40;87.00;;;;;;5050409;28;20440;-77
2022/06/17 01:50:41;;;;;;;2.13;1.20;;;14.40;87.20;;;;;;5051202;28;20432;-78
2022/06/17 01:53:14;;;;;;;2.57;1.30;;;14.30;87.50;;;;;;5065333;28;20454;-77
2022/06/17 01:55:47;;;;;;;2.70;1.10;;;14.20;87.60;;;;;;5070605;28;20430;-77
2022/06/17 01:58:35;;;;;;;2.53;1.20;;;14.20;88.20;;;;;;5070507;28;20423;-77
2022/06/17 02:01:04;;;;;;;3.03;1.33;;;14.30;86.90;;;;;;5071000;28;20481;-76
2022/06/17 02:03:34;;;;;;;2.93;1.17;;;14.30;88.30;;;;;;5066585;28;20487;-76
2022/06/17 02:06:15;;;;;;;2.83;1.27;;;14.20;87.70;;;;;;5071037;28;20446;-76
2022/06/17 02:08:41;;;;;;;1.80;0.90;;;14.20;88.10;;;;;;5069919;28;20410;-75
2022/06/17 02:11:07;;;;;;;2.50;1.20;;;14.10;88.90;;;;;;5070598;28;20863;-76
2022/06/17 02:13:33;;;;;;;3.50;1.27;;;14.10;88.90;;;;;;5068688;28;20470;-77
2022/06/17 02:16:01;;;;;;;2.90;1.37;;;14.00;89.10;;;;;;5069146;28;20510;-77
2022/06/17 02:18:26;;;;;;;2.50;1.30;;;14.00;90.00;;;;;;5070324;28;20992;-76
2022/06/17 02:20:57;;;;;;;2.80;1.40;;;13.90;90.00;;;;;;5071309;28;20463;-76
2022/06/17 02:23:26;;;;;;;3.10;1.40;;;13.90;90.10;;;;;;5069486;28;20223;-76
2022/06/17 02:25:54;;;;;;;2.23;1.00;;;13.90;90.90;;;;;;5070870;28;20787;-77
2022/06/17 02:28:21;;;;;;;2.70;1.27;;;13.80;90.50;;;;;;5070617;28;20418;-77
2022/06/17 02:30:48;;;;;;;2.40;1.30;;;13.80;90.50;;;;;;5070735;28;20415;-76
2022/06/17 02:33:15;;;;;;;3.20;1.20;;;13.80;90.40;;;;;;5069926;28;20446;-77
2022/06/17 02:36:04;;;;;;;2.27;1.40;;;13.70;90.60;;;;;;5070053;28;20831;-76
2022/06/17 02:38:34;;;;;;;3.37;1.50;;;13.60;90.70;;;;;;5069168;28;20420;-76
2022/06/17 02:41:07;;;;;;;4.80;1.40;;;13.50;91.00;;;;;;5070143;28;21035;-78
2022/06/17 02:43:39;;;;;;;2.33;1.20;;;13.50;91.20;;;;;;5066988;28;20435;-76
2022/06/17 02:46:13;;;;;;;2.50;1.37;;;13.50;91.10;;;;;;5070163;28;20411;-76
2022/06/17 02:48:48;;;;;;;3.50;1.73;;;13.40;91.50;;;;;;5069306;28;20423;-77
2022/06/17 02:51:15;;;;;;;2.10;1.23;;;13.40;91.50;;;;;;5069885;28;20402;-76
2022/06/17 02:53:42;;;;;;;2.80;1.73;;;13.40;91.30;;;;;;5049159;28;20436;-76
2022/06/17 02:56:14;;;;;;;2.67;1.33;;;13.40;91.50;;;;;;5049766;28;20470;-76
2022/06/17 02:58:55;;;;;;;3.50;1.53;;;13.40;91.80;;;;;;5049428;28;20400;-76
2022/06/17 03:01:25;;;;;;;2.80;1.57;;;13.40;91.60;;;;;;5049693;28;20491;-77
2022/06/17 03:03:54;;;;;;;2.00;1.30;;;13.30;91.50;;;;;;5054612;28;20474;-76
2022/06/17 03:06:29;;;;;;;9.93;2.10;;;13.30;91.60;;;;;;5068302;28;20430;-74
2022/06/17 03:08:59;;;;;;;2.20;0.97;;;13.40;91.70;;;;;;5069221;28;20436;-76
2022/06/17 03:11:24;;;;;;;4.20;1.50;;;13.30;91.80;;;;;;5069043;28;20502;-74
2022/06/17 03:13:53;;;;;;;3.23;1.70;;;13.30;91.50;;;;;;5069484;28;20863;-75
2022/06/17 03:16:21;;;;;;;1.93;1.23;;;13.20;91.30;;;;;;5068991;28;20753;-73
2022/06/17 03:18:49;;;;;;;2.87;1.63;;;13.20;91.30;;;;;;5067910;28;20431;-76
2022/06/17 03:21:20;;;;;;;3.20;1.40;;;13.20;92.10;;;;;;5069823;28;20463;-76
2022/06/17 03:24:42;;;;;;;1.70;1.10;;;13.10;92.20;;;;;;5068821;28;21233;-75
2022/06/17 03:27:15;;;;;;;2.43;1.00;;;13.10;92.40;;;;;;5029572;28;20947;-76
2022/06/17 03:29:44;;;;;;;4.43;1.37;;;13.10;92.50;;;;;;5072848;28;20415;-76
2022/06/17 03:32:27;;;;;;;4.20;1.23;;;13.10;92.60;;;;;;5070218;28;20445;-76
2022/06/17 03:34:55;;;;;;;2.80;1.20;;;13.10;92.50;;;;;;5068712;28;20811;-76
2022/06/17 03:37:57;;;;;;;3.73;1.50;;;13.10;92.90;;;;;;5068654;28;20441;-76
2022/06/17 03:40:36;;;;;;;3.63;1.73;;;13.00;93.20;;;;;;5065695;28;20772;-76
2022/06/17 03:43:10;;;;;;;3.87;1.40;;;13.10;93.20;;;;;;5067257;28;20403;-76
2022/06/17 03:45:48;;;;;;;3.27;1.40;;;13.10;92.80;;;;;;5067561;28;20428;-75
2022/06/17 03:48:37;;;;;;;10.40;1.27;;;13.20;93.00;;;;;;5066628;28;20531;-76
2022/06/17 03:51:03;;;;;;;3.73;1.57;;;13.10;93.30;;;;;;5068989;28;20824;-76
2022/06/17 03:53:33;;;;;;;2.20;1.47;;;12.90;93.70;;;;;;5049464;28;20487;-75
2022/06/17 03:56:07;;;;;;;2.17;1.27;;;13.00;93.90;;;;;;5047089;28;20185;-75
2022/06/17 03:58:33;;;;;;;2.40;1.53;;;13.00;94.20;;;;;;5048106;28;20411;-76
2022/06/17 04:01:19;;;;;;;2.97;1.70;;;13.00;94.30;;;;;;5048411;28;20460;-76
2022/06/17 04:03:56;;;;;;;4.80;1.53;;;13.00;94.20;;;;;;5060646;28;20463;-76
2022/06/17 04:06:26;;;;;;;6.60;1.40;;;13.10;94.30;;;;;;5056641;28;20424;-75
2022/06/17 04:09:02;;;;;;;4.70;1.40;;;13.10;94.40;;;;;;5047164;28;20416;-75
2022/06/17 04:11:35;;;;;;;4.40;1.57;;;13.10;94.40;;;;;;5047877;28;20925;-76
2022/06/17 04:14:05;;;;;;;4.40;1.70;;;13.10;94.70;;;;;;5048100;28;20961;-76
2022/06/17 04:16:44;;;;;;;2.20;1.23;;;13.10;94.80;;;;;;5048202;28;20420;-76
2022/06/17 04:19:17;;;;;;;4.37;1.67;;;13.10;94.70;;;;;;5048193;28;20825;-75
2022/06/17 04:21:43;;;;;;;3.00;1.30;;;13.10;95.00;;;;;;5046221;28;20463;-76
2022/06/17 04:24:14;;;;;;;2.70;1.57;;;13.10;94.90;;;;;;5048402;28;20432;-76
2022/06/17 04:26:42;;;;;;;3.90;1.80;;;13.20;94.80;;;;;;5063455;28;20264;-75
2022/06/17 04:29:14;;;;;;;3.20;1.83;;;13.30;95.20;;;;;;5046900;28;20452;-76
2022/06/17 04:31:42;;;;;;;2.73;1.50;;;13.30;95.00;;;;;;5047681;28;20400;-76
2022/06/17 04:34:16;;;;;;;5.17;2.20;;;13.30;95.00;;;;;;5055614;28;20805;-78
2022/06/17 04:36:51;;;;;;;10.90;3.60;;;13.40;95.00;;;;;;5067436;28;20419;-77
2022/06/17 04:39:26;;;;;;;68.83;21.73;;;13.40;95.20;;;;;;5067910;28;20419;-76
2022/06/17 04:41:58;;;;;;;136.83;35.30;;;13.50;95.10;;;;;;5067601;28;20449;-76
2022/06/17 04:44:24;;;;;;;200.43;58.83;;;13.60;95.10;;;;;;5066493;28;20471;-76
2022/06/17 04:46:52;;;;;;;198.73;52.50;;;13.70;94.90;;;;;;5066329;28;20447;-77
2022/06/17 04:49:24;;;;;;;51.97;12.87;;;13.70;95.10;;;;;;5067915;28;20197;-77
2022/06/17 04:52:03;;;;;;;44.87;13.00;;;13.70;95.00;;;;;;5062711;28;20424;-76
2022/06/17 04:54:30;;;;;;;31.17;8.13;;;13.80;94.90;;;;;;5047743;28;20563;-76
2022/06/17 04:56:58;;;;;;;16.50;5.80;;;13.80;95.20;;;;;;5048136;28;20528;-76
2022/06/17 04:59:44;;;;;;;10.30;4.40;;;13.80;95.30;;;;;;5048177;28;20436;-76
2022/06/17 05:02:26;;;;;;;19.40;5.00;;;13.90;95.20;;;;;;5050148;28;20525;-76
2022/06/17 05:04:57;;;;;;;14.43;4.93;;;13.90;95.60;;;;;;5065206;28;20439;-76
2022/06/17 05:07:24;;;;;;;12.30;4.60;;;14.00;95.10;;;;;;5071470;28;20392;-76
2022/06/17 05:10:08;;;;;;;12.50;5.03;;;14.00;95.30;;;;;;5071147;28;20438;-77
2022/06/17 05:12:47;;;;;;;33.67;9.87;;;14.10;94.60;;;;;;5070918;28;20414;-76
2022/06/17 05:15:17;;;;;;;173.23;47.83;;;14.10;95.20;;;;;;5071835;28;20406;-77
2022/06/17 05:17:43;;;;;;;189.70;57.70;;;14.30;95.70;;;;;;5069879;28;20538;-76
2022/06/17 05:20:15;;;;;;;162.83;50.70;;;14.30;95.90;;;;;;5070256;28;20427;-76
2022/06/17 05:22:48;;;;;;;57.33;15.83;;;14.40;95.60;;;;;;5069940;28;20437;-77
2022/06/17 05:25:22;;;;;;;12.90;4.97;;;14.40;94.60;;;;;;5071628;28;20415;-76
2022/06/17 05:27:48;;;;;;;6.23;1.60;;;14.60;93.80;;;;;;5069812;28;20455;-77
2022/06/17 05:30:14;;;;;;;6.90;2.10;;;14.60;93.00;;;;;;5071405;28;20407;-77
2022/06/17 05:32:53;;;;;;;5.73;2.93;;;14.80;92.60;;;;;;5071664;28;20407;-76
2022/06/17 05:35:20;;;;;;;5.23;3.00;;;14.90;93.70;;;;;;5070242;28;20431;-76
2022/06/17 05:37:47;;;;;;;2.97;1.63;;;15.00;94.30;;;;;;5070675;28;20481;-76
2022/06/17 05:40:13;;;;;;;1.80;1.10;;;15.10;93.70;;;;;;5070907;28;20481;-77
2022/06/17 05:42:40;;;;;;;8.00;2.37;;;15.20;93.90;;;;;;5070762;28;20463;-77
2022/06/17 05:45:07;;;;;;;7.40;3.07;;;15.30;94.00;;;;;;5069466;28;21005;-76
2022/06/17 05:47:33;;;;;;;8.93;3.77;;;15.30;93.30;;;;;;5071068;28;20506;-76
2022/06/17 05:49:58;;;;;;;6.90;3.47;;;15.40;92.70;;;;;;5071774;28;20494;-76
2022/06/17 05:52:24;;;;;;;12.50;3.53;;;15.50;93.00;;;;;;5069698;28;20181;-76
2022/06/17 05:54:58;;;;;;;8.23;3.83;;;15.60;92.60;;;;;;5071218;28;20660;-77
2022/06/17 05:57:24;;;;;;;14.43;4.00;;;15.70;92.30;;;;;;5070450;28;20172;-76
2022/06/17 05:59:49;;;;;;;13.57;5.10;;;15.80;91.80;;;;;;5071330;28;20426;-76
2022/06/17 06:02:15;;;;;;;12.77;4.40;;;15.90;91.90;;;;;;5070407;28;20235;-76
2022/06/17 06:04:41;;;;;;;9.40;3.83;;;16.00;92.30;;;;;;5062316;28;20251;-77
2022/06/17 06:07:06;;;;;;;10.10;4.20;;;16.10;91.90;;;;;;5067059;28;20196;-77
2022/06/17 06:09:32;;;;;;;10.50;4.10;;;16.30;91.90;;;;;;5071148;28;20184;-76
2022/06/17 06:11:57;;;;;;;17.83;3.93;;;16.40;91.40;;;;;;5070298;28;20238;-77
2022/06/17 06:14:23;;;;;;;10.40;3.50;;;16.50;92.20;;;;;;5051635;28;20205;-77
2022/06/17 06:16:49;;;;;;;6.13;2.20;;;16.60;92.10;;;;;;5047548;28;20193;-76
2022/06/17 06:19:14;;;;;;;2.57;1.47;;;16.60;91.50;;;;;;5052487;28;20637;-76
2022/06/17 06:21:40;;;;;;;8.50;2.70;;;16.80;90.30;;;;;;5060323;28;20220;-77
2022/06/17 06:24:06;;;;;;;3.10;1.83;;;17.00;90.50;;;;;;5069595;28;20262;-76
2022/06/17 06:26:32;;;;;;;3.93;1.10;;;17.10;87.70;;;;;;5068852;28;20181;-76
2022/06/17 06:28:59;;;;;;;2.10;1.30;;;17.30;86.80;;;;;;5069493;28;20347;-77
2022/06/17 06:31:37;;;;;;;3.70;1.47;;;17.40;86.30;;;;;;5069556;28;20242;-74
2022/06/17 06:34:03;;;;;;;1.90;1.10;;;17.60;87.60;;;;;;5065026;28;21060;-77
2022/06/17 06:36:29;;;;;;;5.00;1.63;;;17.70;89.80;;;;;;5058826;28;20420;-76
2022/06/17 06:38:55;;;;;;;2.43;1.43;;;17.90;88.10;;;;;;5062119;28;20424;-76
2022/06/17 06:41:21;;;;;;;5.80;2.10;;;18.00;88.10;;;;;;5049219;28;20475;-77
2022/06/17 06:43:48;;;;;;;4.13;1.50;;;18.10;85.60;;;;;;5063204;28;20603;-76
2022/06/17 06:46:16;;;;;;;4.17;1.30;;;18.10;85.10;;;;;;5058471;28;20944;-77
2022/06/17 06:48:42;;;;;;;4.40;2.00;;;18.20;87.40;;;;;;5052085;28;20530;-76
2022/06/17 06:51:08;;;;;;;15.93;1.73;;;18.20;88.10;;;;;;5069212;28;20435;-79
2022/06/17 06:53:33;;;;;;;6.20;1.87;;;18.30;86.30;;;;;;5067182;28;20459;-76
2022/06/17 06:55:59;;;;;;;3.53;1.20;;;18.40;86.60;;;;;;5063462;28;20565;-80
2022/06/17 06:58:26;;;;;;;3.40;1.53;;;18.50;86.10;;;;;;5061625;28;20474;-77
2022/06/17 07:00:56;;;;;;;4.47;1.53;;;18.60;85.90;;;;;;5058396;28;20210;-77
2022/06/17 07:03:23;;;;;;;10.80;2.73;;;18.70;83.80;;;;;;5064329;28;20451;-76
2022/06/17 07:05:52;;;;;;;5.47;1.80;;;18.80;85.40;;;;;;5067841;28;20446;-77
2022/06/17 07:08:20;;;;;;;6.10;1.93;;;19.00;83.90;;;;;;5067508;28;20506;-77
2022/06/17 07:10:47;;;;;;;3.33;1.10;;;19.20;84.50;;;;;;5067917;28;20490;-77
2022/06/17 07:13:13;;;;;;;3.30;2.10;;;19.40;82.60;;;;;;5067602;28;20956;-75
2022/06/17 07:15:42;;;;;;;26.43;6.03;;;19.60;80.80;;;;;;5067935;28;20431;-77
2022/06/17 07:18:31;;;;;;;3.40;1.53;;;19.70;84.70;;;;;;5065711;28;21017;-77
2022/06/17 07:21:00;;;;;;;4.73;2.07;;;19.80;81.30;;;;;;5067670;28;20566;-78
2022/06/17 07:23:33;;;;;;;4.17;2.00;;;20.30;82.50;;;;;;5066848;28;20490;-78
2022/06/17 07:26:08;;;;;;;4.60;2.00;;;20.50;79.30;;;;;;5066935;28;20423;-77
2022/06/17 07:28:34;;;;;;;4.70;1.47;;;20.90;79.10;;;;;;5066889;28;21180;-79
2022/06/17 07:31:00;;;;;;;3.50;1.33;;;21.30;77.90;;;;;;5067275;28;20433;-78
2022/06/17 07:33:29;;;;;;;4.53;1.93;;;21.60;79.00;;;;;;5066639;28;20714;-79
2022/06/17 07:35:59;;;;;;;11.53;1.70;;;22.10;74.40;;;;;;5065532;28;20280;-77
2022/06/17 07:41:16;;;;;;;8.80;1.60;;;23.00;74.10;;;;;;5062133;28;20474;-78
2022/06/17 07:43:42;;;;;;;2.33;1.23;;;23.70;71.60;;;;;;5050013;28;21225;-78
2022/06/17 07:46:08;;;;;;;12.13;3.37;;;24.30;68.80;;;;;;5067514;28;20418;-79
2022/06/17 07:48:34;;;;;;;4.47;1.45;;;25.10;69.80;;;;;;5068079;28;20907;-80
2022/06/17 07:51:01;;;;;;;3.53;2.00;;;26.00;67.00;;;;;;5068349;28;20201;-79
2022/06/17 07:53:30;;;;;;;2.90;1.42;;;26.40;63.60;;;;;;5063900;28;20335;-79
2022/06/17 07:55:59;;;;;;;6.15;2.35;;;26.70;64.20;;;;;;5054438;28;20885;-78
2022/06/17 07:58:26;;;;;;;2.28;1.20;;;26.70;63.50;;;;;;5067565;28;20196;-78
2022/06/17 08:00:51;;;;;;;5.18;1.73;;;27.10;63.40;;;;;;5067836;28;20253;-78
2022/06/17 08:03:19;;;;;;;3.20;1.52;;;27.30;61.00;;;;;;5066441;28;20204;-78
2022/06/17 08:05:55;;;;;;;2.67;1.33;;;27.10;60.80;;;;;;5054074;28;20188;-78
2022/06/17 08:08:23;;;;;;;5.85;1.88;;;27.30;61.20;;;;;;5066631;28;20270;-79
2022/06/17 08:10:51;;;;;;;6.65;1.75;;;27.20;59.70;;;;;;5055491;28;20220;-79
2022/06/17 08:13:16;;;;;;;4.63;1.77;;;28.40;57.90;;;;;;5052441;28;20200;-79
2022/06/17 08:15:42;;;;;;;3.15;1.58;;;27.80;60.10;;;;;;5064537;28;20195;-79
2022/06/17 08:18:10;;;;;;;2.70;1.40;;;28.50;57.40;;;;;;5046216;28;20189;-79
2022/06/17 08:20:36;;;;;;;2.53;1.25;;;29.30;56.00;;;;;;5046550;28;20205;-80
2022/06/17 08:23:04;;;;;;;5.72;1.58;;;28.90;57.70;;;;;;5063455;28;20254;-81
2022/06/17 08:25:31;;;;;;;6.47;1.80;;;28.90;58.60;;;;;;5067675;28;20173;-80
2022/06/17 08:27:58;;;;;;;2.22;1.38;;;28.30;58.60;;;;;;5060644;28;20851;-79
2022/06/17 08:30:27;;;;;;;3.35;1.98;;;27.80;59.00;;;;;;5067398;28;20188;-79
2022/06/17 08:32:55;;;;;;;3.00;1.50;;;28.40;57.90;;;;;;5062162;28;20203;-79
2022/06/17 08:35:50;;;;;;;2.95;1.80;;;28.70;59.10;;;;;;5058157;28;20257;-79
2022/06/17 08:38:19;;;;;;;4.75;1.90;;;28.20;59.40;;;;;;5049101;28;20291;-78
2022/06/17 08:40:54;;;;;;;3.92;1.60;;;28.10;56.50;;;;;;5061987;28;20233;-81
2022/06/17 08:43:34;;;;;;;5.07;2.10;;;28.90;53.40;;;;;;5063344;28;20208;-79
2022/06/17 08:46:30;;;;;;;2.88;1.38;;;28.40;56.30;;;;;;5071300;28;20184;-79
2022/06/17 08:49:02;;;;;;;2.45;1.52;;;28.30;55.70;;;;;;5068203;28;20200;-79
2022/06/17 08:51:42;;;;;;;3.13;1.70;;;28.20;56.60;;;;;;5061200;28;20268;-79
2022/06/17 08:54:16;;;;;;;18.33;2.00;;;27.90;58.00;;;;;;5070565;28;20212;-79
2022/06/17 08:56:50;;;;;;;3.13;1.77;;;27.90;57.70;;;;;;5064051;28;20191;-81
2022/06/17 08:59:34;;;;;;;3.92;1.60;;;28.20;56.50;;;;;;5061419;28;20287;-81
2022/06/17 09:02:18;;;;;;;8.32;2.30;;;28.10;57.40;;;;;;5067436;28;20204;-78
2022/06/17 09:04:54;;;;;;;2.90;1.55;;;27.80;57.80;;;;;;5063854;28;20214;-79
2022/06/17 09:07:38;;;;;;;5.05;1.90;;;28.00;58.40;;;;;;5059584;28;20271;-79
2022/06/17 09:10:08;;;;;;;3.50;1.67;;;28.10;56.90;;;;;;5070691;28;20201;-81
2022/06/17 09:13:04;;;;;;;2.80;1.30;;;28.30;58.00;;;;;;5064754;28;20184;-78
2022/06/17 09:15:33;;;;;;;4.13;1.40;;;28.20;58.00;;;;;;5074789;28;20279;-79
2022/06/17 09:18:09;;;;;;;1.98;1.08;;;28.10;56.80;;;;;;5066255;28;21009;-79
2022/06/17 09:20:38;;;;;;;2.67;1.30;;;28.00;56.20;;;;;;5057738;28;20201;-79
2022/06/17 09:23:05;;;;;;;3.08;1.20;;;28.10;56.80;;;;;;5058467;28;20185;-79
2022/06/17 09:25:53;;;;;;;2.45;1.30;;;28.20;55.40;;;;;;5060624;28;20184;-80
2022/06/17 09:28:24;;;;;;;3.53;1.88;;;28.30;55.80;;;;;;5068030;28;20245;-80
2022/06/17 09:31:11;;;;;;;3.38;1.50;;;28.40;58.20;;;;;;5069834;28;20192;-81
2022/06/17 09:33:57;;;;;;;3.75;1.52;;;28.40;55.70;;;;;;5067206;28;20257;-80
2022/06/17 09:36:28;;;;;;;4.65;2.03;;;28.40;56.40;;;;;;5063307;28;20180;-81
2022/06/17 09:39:16;;;;;;;3.17;1.40;;;28.30;57.70;;;;;;5062866;28;20251;-79
2022/06/17 09:42:06;;;;;;;6.35;1.20;;;28.50;53.90;;;;;;5070992;28;20626;-80
2022/06/17 09:44:51;;;;;;;2.40;1.40;;;28.60;54.40;;;;;;5069615;28;20207;-79
2022/06/17 09:47:32;;;;;;;4.20;1.60;;;28.90;53.00;;;;;;5064902;28;20196;-82
2022/06/17 09:50:04;;;;;;;2.80;1.60;;;28.80;51.90;;;;;;5058763;28;20246;-80
2022/06/17 09:52:42;;;;;;;3.72;1.23;;;28.30;56.70;;;;;;5047827;28;20188;-80
2022/06/17 09:55:22;;;;;;;6.07;1.50;;;27.90;55.00;;;;;;5070288;28;20211;-79
2022/06/17 09:58:09;;;;;;;5.75;1.35;;;27.90;54.40;;;;;;5063210;28;20180;-81
2022/06/17 10:00:45;;;;;;;7.22;1.45;;;28.00;54.50;;;;;;5050211;28;20191;-80
2022/06/17 10:03:20;;;;;;;3.50;1.20;;;28.20;53.70;;;;;;5063656;28;20196;-80
2022/06/17 10:06:11;;;;;;;3.95;1.63;;;28.90;50.50;;;;;;5050593;28;20185;-80
2022/06/17 10:08:43;;;;;;;1.88;1.02;;;28.20;53.90;;;;;;5068359;28;20176;-77
2022/06/17 10:11:34;;;;;;;3.83;0.90;;;28.10;53.00;;;;;;5058723;28;20259;-77
2022/06/17 10:14:24;;;;;;;2.63;1.10;;;28.20;52.70;;;;;;5060467;28;20246;-79
2022/06/17 10:20:08;;;;;;;4.85;1.20;;;28.00;52.60;;;;;;5069891;28;20707;-80
2022/06/17 10:22:37;;;;;;;2.25;1.23;;;28.60;51.50;;;;;;5069205;28;20236;-79
2022/06/17 10:25:37;;;;;;;2.25;1.05;;;28.20;52.90;;;;;;5068742;28;20208;-80
2022/06/17 10:28:18;;;;;;;3.17;1.48;;;28.20;52.20;;;;;;5040244;28;20196;-79
2022/06/17 10:31:03;;;;;;;2.25;1.02;;;27.90;56.50;;;;;;5068033;28;20204;-79
2022/06/17 10:33:33;;;;;;;1.98;1.00;;;28.00;56.20;;;;;;5066297;28;20223;-80
2022/06/17 10:35:59;;;;;;;2.22;1.08;;;27.80;54.40;;;;;;5064546;28;20212;-79
2022/06/17 10:38:29;;;;;;;2.20;1.23;;;27.70;57.30;;;;;;5067894;28;20195;-81
2022/06/17 10:40:55;;;;;;;2.60;1.10;;;27.30;55.10;;;;;;5067905;28;20207;-79
2022/06/17 10:43:34;;;;;;;2.00;1.10;;;27.30;54.20;;;;;;5066690;28;20234;-80
2022/06/17 10:46:01;;;;;;;2.30;1.20;;;27.20;57.40;;;;;;5066286;28;20176;-80
2022/06/17 10:48:40;;;;;;;4.47;1.17;;;27.10;55.50;;;;;;5067949;28;20262;-79
2022/06/17 10:51:07;;;;;;;1.90;1.00;;;27.30;52.10;;;;;;5053586;28;20559;-79
2022/06/17 10:53:52;;;;;;;2.47;1.10;;;27.40;51.80;;;;;;5068551;28;20267;-78
2022/06/17 10:57:01;;;;;;;1.90;0.93;;;27.20;52.60;;;;;;5067743;28;20196;-81
2022/06/17 10:59:42;;;;;;;2.50;1.10;;;27.10;53.40;;;;;;5043014;28;20534;-80
2022/06/17 11:02:25;;;;;;;5.07;2.07;;;27.30;51.80;;;;;;5064524;28;20528;-78
2022/06/17 11:04:54;;;;;;;11.27;1.60;;;27.30;51.80;;;;;;5067663;28;20196;-79
2022/06/17 11:07:50;;;;;;;3.40;1.00;;;27.30;52.00;;;;;;5067060;28;20202;-79
2022/06/17 11:10:16;;;;;;;7.10;1.27;;;27.30;51.60;;;;;;5064930;28;20831;-79
2022/06/17 11:13:04;;;;;;;3.53;1.13;;;27.10;54.10;;;;;;5067306;28;20234;-79
2022/06/17 11:15:53;;;;;;;2.03;0.93;;;27.30;51.10;;;;;;5044319;28;20185;-79
2022/06/17 11:18:27;;;;;;;1.80;0.90;;;27.00;49.30;;;;;;5062688;28;20847;-80
2022/06/17 11:21:03;;;;;;;7.50;1.10;;;27.10;51.80;;;;;;5052534;28;20201;-79
2022/06/17 11:23:44;;;;;;;5.17;1.03;;;27.20;54.20;;;;;;5060167;28;20200;-80
2022/06/17 11:26:21;;;;;;;4.20;1.33;;;27.00;52.30;;;;;;5055049;28;20659;-78
2022/06/17 11:28:54;;;;;;;2.10;1.07;;;27.10;51.50;;;;;;5067250;28;20434;-78
2022/06/17 11:31:19;;;;;;;4.23;1.20;;;27.30;50.40;;;;;;5066340;28;20188;-80
2022/06/17 11:33:54;;;;;;;1.80;0.83;;;27.40;49.60;;;;;;5067045;28;20200;-81
2022/06/17 11:36:19;;;;;;;1.70;0.83;;;27.50;49.30;;;;;;5062304;28;20271;-77
2022/06/17 11:38:46;;;;;;;2.67;1.10;;;27.50;51.20;;;;;;5066661;28;20852;-80
2022/06/17 11:41:27;;;;;;;3.30;1.23;;;27.70;51.20;;;;;;5066183;28;20208;-80
2022/06/17 11:43:55;;;;;;;2.60;0.97;;;27.70;49.80;;;;;;5066583;28;20212;-80
2022/06/17 11:46:24;;;;;;;4.33;1.40;;;27.90;50.50;;;;;;5066691;28;20275;-78
2022/06/17 11:48:58;;;;;;;2.20;0.93;;;28.00;49.00;;;;;;5065741;28;20200;-80
2022/06/17 11:51:26;;;;;;;2.10;1.03;;;28.10;48.70;;;;;;5057937;28;20265;-79
2022/06/17 11:54:01;;;;;;;2.13;1.23;;;27.90;49.60;;;;;;5065756;28;20814;-79
2022/06/17 11:56:33;;;;;;;3.13;1.40;;;27.90;50.20;;;;;;5064973;28;20294;-79
2022/06/17 11:59:13;;;;;;;2.57;1.17;;;27.90;50.50;;;;;;5066449;28;20215;-79
2022/06/17 12:02:00;;;;;;;2.40;1.10;;;28.20;48.90;;;;;;5066717;28;20215;-79
2022/06/17 12:04:42;;;;;;;2.53;0.90;;;28.20;47.10;;;;;;5065058;28;20247;-79
2022/06/17 12:07:27;;;;;;;2.20;1.17;;;28.00;48.50;;;;;;5052285;28;20208;-79
2022/06/17 12:10:16;;;;;;;2.50;1.40;;;27.60;45.80;;;;;;5064574;28;20184;-79
2022/06/17 12:12:43;;;;;;;2.00;0.73;;;27.90;48.00;;;;;;5066488;28;20276;-79
2022/06/17 12:15:09;;;;;;;13.63;0.80;;;28.30;48.70;;;;;;5065957;28;20650;-79
2022/06/17 12:17:38;;;;;;;1.97;0.90;;;28.60;49.90;;;;;;5066491;28;20702;-79
2022/06/17 12:20:32;;;;;;;2.73;1.00;;;28.70;47.30;;;;;;5053201;28;20180;-80
2022/06/17 12:23:12;;;;;;;4.37;0.80;;;28.30;45.20;;;;;;5058416;28;20881;-79
2022/06/17 12:25:50;;;;;;;4.60;1.48;;;28.50;48.40;;;;;;5066470;28;20196;-79
2022/06/17 12:28:16;;;;;;;2.72;0.75;;;28.50;50.70;;;;;;5066777;28;20207;-80
2022/06/17 12:30:49;;;;;;;5.50;1.25;;;28.50;50.40;;;;;;5067328;28;20185;-79
2022/06/17 12:33:42;;;;;;;4.82;1.48;;;28.80;50.00;;;;;;5053942;28;20231;-79
2022/06/17 12:36:20;;;;;;;2.47;1.00;;;28.80;49.20;;;;;;5062707;28;20295;-80
2022/06/17 12:39:07;;;;;;;2.88;1.10;;;28.90;53.80;;;;;;5067219;28;20217;-81
2022/06/17 12:41:42;;;;;;;2.75;1.52;;;28.90;51.70;;;;;;5054488;28;20561;-77
2022/06/17 12:44:32;;;;;;;1.80;1.05;;;28.90;50.50;;;;;;5066188;28;20696;-81
2022/06/17 12:47:16;;;;;;;3.10;1.45;;;29.30;49.70;;;;;;5066410;28;20215;-79
2022/06/17 12:53:14;;;;;;;2.13;1.40;;;28.90;49.40;;;;;;5049072;28;20843;-79
2022/06/17 12:55:56;;;;;;;2.38;1.33;;;28.60;50.60;;;;;;5063081;28;20181;-80
2022/06/17 12:58:33;;;;;;;2.03;1.05;;;28.50;54.00;;;;;;5066187;28;20229;-79
2022/06/17 13:01:32;;;;;;;2.15;1.20;;;28.60;51.20;;;;;;5066352;28;20208;-79
2022/06/17 13:04:03;;;;;;;7.20;1.93;;;28.50;53.60;;;;;;5044453;28;20262;-77
2022/06/17 13:06:59;;;;;;;2.77;1.30;;;28.80;52.70;;;;;;5058219;28;20811;-80
2022/06/17 13:10:39;;;;;;;3.45;1.05;;;29.00;53.10;;;;;;5056843;28;20188;-79
2022/06/17 13:12:51;;;;;;;4.18;1.70;;;28.90;50.30;;;;;;5056970;28;20266;-79
2022/06/17 13:15:25;;;;;;;4.03;1.40;;;28.60;52.40;;;;;;5066389;28;20192;-81
2022/06/17 13:17:56;;;;;;;2.60;1.27;;;28.70;54.10;;;;;;5051476;28;20227;-80
2022/06/17 13:20:30;;;;;;;13.15;1.98;;;28.80;53.80;;;;;;5053696;28;20185;-80
2022/06/17 13:23:03;;;;;;;2.17;1.17;;;28.80;55.00;;;;;;5064941;28;20258;-78
2022/06/17 13:25:48;;;;;;;2.25;1.15;;;28.70;53.00;;;;;;5031989;28;20314;-77
2022/06/17 13:28:22;;;;;;;2.92;1.20;;;28.50;54.30;;;;;;5053862;28;20176;-78